createdAt,value
2023-05-15T00:02:14.470Z,5.35
2023-05-15T00:04:42.196Z,7.10
2023-05-15T00:07:10.420Z,4.82
2023-05-15T00:09:38.026Z,2.85
2023-05-15T00:12:05.864Z,4.68
2023-05-15T00:14:33.643Z,2.90
2023-05-15T00:17:01.313Z,2.70
2023-05-15T00:19:28.967Z,3.78
2023-05-15T00:21:56.899Z,5.50
2023-05-15T00:24:24.519Z,5.65
2023-05-15T00:26:52.409Z,6.70
2023-05-15T00:29:20.141Z,6.50
2023-05-15T00:31:48.124Z,3.45
2023-05-15T00:34:15.942Z,4.53
2023-05-15T00:36:44.267Z,8.45
2023-05-15T00:39:12.238Z,7.20
2023-05-15T00:41:41.959Z,9.20
2023-05-15T00:44:11.483Z,4.78
2023-05-15T00:46:40.298Z,6.90
2023-05-15T00:49:13.587Z,4.93
2023-05-15T00:51:42.468Z,7.22
2023-05-15T00:54:11.504Z,5.75
2023-05-15T00:56:40.481Z,6.95
2023-05-15T00:59:08.340Z,3.90
2023-05-15T01:01:36.301Z,5.40
2023-05-15T01:04:04.628Z,7.53
2023-05-15T01:06:33.055Z,7.15
2023-05-15T01:09:04.212Z,9.05
2023-05-15T01:11:36.565Z,6.53
2023-05-15T01:14:06.672Z,9.70
2023-05-15T01:16:36.234Z,5.53
2023-05-15T01:19:05.522Z,7.35
2023-05-15T01:21:39.245Z,7.60
2023-05-15T01:24:48.266Z,9.60
2023-05-15T01:30:27.651Z,6.15
2023-05-15T01:33:19.798Z,6.40
2023-05-15T01:36:12.849Z,6.55
2023-05-15T01:38:49.088Z,6.97
2023-05-15T01:41:22.661Z,6.70
2023-05-15T01:43:56.737Z,7.63
2023-05-15T01:46:29.040Z,6.85
2023-05-15T01:49:03.315Z,7.25
2023-05-15T01:51:32.067Z,7.60
2023-05-15T01:54:00.428Z,8.55
2023-05-15T01:56:28.984Z,8.88
2023-05-15T01:58:57.442Z,8.82
2023-05-15T02:01:26.532Z,10.32
2023-05-15T02:03:55.587Z,10.13
2023-05-15T02:06:24.725Z,7.90
2023-05-15T02:08:55.348Z,14.93
2023-05-15T02:11:23.015Z,13.60
2023-05-15T02:13:51.950Z,7.30
2023-05-15T02:16:20.121Z,15.35
2023-05-15T02:18:48.435Z,10.57
2023-05-15T02:24:04.177Z,12.30
2023-05-15T02:27:05.476Z,10.45
2023-05-15T02:29:51.795Z,10.98
2023-05-15T02:32:42.295Z,13.48
2023-05-15T02:35:32.056Z,9.88
2023-05-15T02:38:07.170Z,9.23
2023-05-15T02:40:37.571Z,12.15
2023-05-15T02:43:08.879Z,8.95
2023-05-15T02:45:36.960Z,9.32
2023-05-15T02:48:05.795Z,10.00
2023-05-15T02:50:34.107Z,7.47
2023-05-15T02:53:06.160Z,9.13
2023-05-15T02:55:34.672Z,10.18
2023-05-15T02:58:03.725Z,9.32
2023-05-15T03:00:31.247Z,8.55
2023-05-15T03:02:58.934Z,8.30
2023-05-15T03:05:27.084Z,8.75
2023-05-15T03:07:55.074Z,6.68
2023-05-15T03:10:24.377Z,5.55
2023-05-15T03:12:51.941Z,10.15
2023-05-15T03:15:20.343Z,10.90
2023-05-15T03:17:48.284Z,11.20
2023-05-15T03:20:16.520Z,6.97
2023-05-15T03:22:44.208Z,7.75
2023-05-15T03:25:13.372Z,6.88
2023-05-15T03:27:41.093Z,6.50
2023-05-15T03:30:09.283Z,5.70
2023-05-15T03:32:37.021Z,10.13
2023-05-15T03:35:04.936Z,9.55
2023-05-15T03:37:33.369Z,6.82
2023-05-15T03:40:01.153Z,8.82
2023-05-15T03:42:29.660Z,8.55
2023-05-15T03:44:57.440Z,7.32
2023-05-15T03:47:25.161Z,5.38
2023-05-15T03:49:54.110Z,6.60
2023-05-15T03:52:21.602Z,8.27
2023-05-15T03:54:50.593Z,3.95
2023-05-15T03:57:19.552Z,7.05
2023-05-15T03:59:47.108Z,3.75
2023-05-15T04:02:14.779Z,4.53
2023-05-15T04:04:42.389Z,6.80
2023-05-15T04:07:10.310Z,8.82
2023-05-15T04:09:38.862Z,7.28
2023-05-15T04:12:06.575Z,6.90
2023-05-15T04:14:34.172Z,5.88
2023-05-15T04:17:02.187Z,7.97
2023-05-15T04:19:29.906Z,4.50
2023-05-15T04:21:57.611Z,6.88
2023-05-15T04:24:26.483Z,7.68
2023-05-15T04:26:54.393Z,7.70
2023-05-15T04:29:22.139Z,4.22
2023-05-15T04:31:50.109Z,7.90
2023-05-15T04:34:18.887Z,4.80
2023-05-15T04:36:46.655Z,6.60
2023-05-15T04:39:14.464Z,6.40
2023-05-15T04:41:42.278Z,6.85
2023-05-15T04:44:10.054Z,5.28
2023-05-15T04:46:38.266Z,10.93
2023-05-15T04:49:06.814Z,6.10
2023-05-15T04:51:34.560Z,8.23
2023-05-15T04:54:02.402Z,4.00
2023-05-15T04:56:30.098Z,4.10
2023-05-15T04:58:57.829Z,7.22
2023-05-15T05:01:25.715Z,4.72
2023-05-15T05:03:53.344Z,5.10
2023-05-15T05:06:21.553Z,6.93
2023-05-15T05:08:49.285Z,3.95
2023-05-15T05:11:16.921Z,7.47
2023-05-15T05:13:44.408Z,6.32
2023-05-15T05:16:12.157Z,7.13
2023-05-15T05:18:39.781Z,2.85
2023-05-15T05:21:07.456Z,3.10
2023-05-15T05:23:35.077Z,5.90
2023-05-15T05:26:04.243Z,3.35
2023-05-15T05:28:33.815Z,5.65
2023-05-15T05:31:02.670Z,1.80
2023-05-15T05:33:30.477Z,4.75
2023-05-15T05:35:58.007Z,3.10
2023-05-15T05:38:27.731Z,7.15
2023-05-15T05:40:55.389Z,6.28
2023-05-15T05:43:22.936Z,2.38
2023-05-15T05:45:50.942Z,2.15
2023-05-15T05:48:18.534Z,2.92
2023-05-15T05:50:46.223Z,2.88
2023-05-15T05:53:13.727Z,9.57
2023-05-15T05:55:41.365Z,5.75
2023-05-15T05:58:15.120Z,2.85
2023-05-15T06:00:52.638Z,3.45
2023-05-15T06:03:21.555Z,6.03
2023-05-15T06:05:49.166Z,2.13
2023-05-15T06:08:17.101Z,3.58
2023-05-15T06:10:44.847Z,4.90
2023-05-15T06:13:14.844Z,1.75
2023-05-15T06:15:42.743Z,2.88
2023-05-15T06:18:10.420Z,3.17
2023-05-15T06:20:38.543Z,13.32
2023-05-15T06:23:06.094Z,1.48
2023-05-15T06:25:33.749Z,4.03
2023-05-15T06:28:01.417Z,8.63
2023-05-15T06:30:29.160Z,1.35
2023-05-15T06:32:56.756Z,1.35
2023-05-15T06:35:24.435Z,2.88
2023-05-15T06:37:53.196Z,4.35
2023-05-15T06:40:21.121Z,6.32
2023-05-15T06:42:48.858Z,3.15
2023-05-15T06:45:16.604Z,4.25
2023-05-15T06:47:44.387Z,7.22
2023-05-15T06:50:12.223Z,3.78
2023-05-15T06:52:40.041Z,3.53
2023-05-15T06:55:08.156Z,9.30
2023-05-15T06:57:35.989Z,1.38
2023-05-15T07:00:04.917Z,0.90
2023-05-15T07:02:34.509Z,2.42
2023-05-15T07:05:02.242Z,5.00
2023-05-15T07:07:32.599Z,1.50
2023-05-15T07:10:00.092Z,2.55
2023-05-15T07:12:27.707Z,3.55
2023-05-15T07:14:55.202Z,4.20
2023-05-15T07:17:22.892Z,1.75
2023-05-15T07:19:50.565Z,1.83
2023-05-15T07:22:18.260Z,5.95
2023-05-15T07:24:46.101Z,3.03
2023-05-15T07:27:13.780Z,1.58
2023-05-15T07:29:41.319Z,4.88
2023-05-15T07:32:22.344Z,1.48
2023-05-15T07:34:49.931Z,1.70
2023-05-15T07:37:17.470Z,3.28
2023-05-15T07:39:45.149Z,3.47
2023-05-15T07:42:12.906Z,6.28
2023-05-15T07:44:41.883Z,4.97
2023-05-15T07:47:12.044Z,1.70
2023-05-15T07:49:39.755Z,4.50
2023-05-15T07:52:07.554Z,2.22
2023-05-15T07:54:35.280Z,1.27
2023-05-15T07:57:02.974Z,3.47
2023-05-15T07:59:31.178Z,2.08
2023-05-15T08:01:58.751Z,2.38
2023-05-15T08:04:26.679Z,1.65
2023-05-15T08:06:54.361Z,2.50
2023-05-15T08:09:21.959Z,1.42
2023-05-15T08:11:49.642Z,1.30
2023-05-15T08:14:17.538Z,1.25
2023-05-15T08:16:45.150Z,4.43
2023-05-15T08:19:12.879Z,2.45
2023-05-15T08:21:40.993Z,6.03
2023-05-15T08:24:09.281Z,3.35
2023-05-15T08:26:36.886Z,3.95
2023-05-15T08:29:05.154Z,2.72
2023-05-15T08:31:33.191Z,13.80
2023-05-15T08:34:00.828Z,2.20
2023-05-15T08:36:28.598Z,2.13
2023-05-15T08:38:56.288Z,5.60
2023-05-15T08:41:40.661Z,6.15
2023-05-15T08:44:09.775Z,3.50
2023-05-15T08:46:37.551Z,1.95
2023-05-15T08:49:14.877Z,2.72
2023-05-15T08:51:42.816Z,3.63
2023-05-15T08:54:11.722Z,4.28
2023-05-15T08:56:39.542Z,3.40
2023-05-15T08:59:07.186Z,3.50
2023-05-15T09:01:36.163Z,7.13
2023-05-15T09:04:04.963Z,2.17
2023-05-15T09:06:33.979Z,3.13
2023-05-15T09:09:03.906Z,5.70
2023-05-15T09:11:32.387Z,5.78
2023-05-15T09:14:00.160Z,4.82
2023-05-15T09:16:28.099Z,5.70
2023-05-15T09:18:56.395Z,1.75
2023-05-15T09:21:29.617Z,1.75
2023-05-15T09:24:24.904Z,5.80
2023-05-15T09:27:06.957Z,4.97
2023-05-15T09:29:36.057Z,4.80
2023-05-15T09:32:06.508Z,2.33
2023-05-15T09:34:39.612Z,3.72
2023-05-15T09:37:09.968Z,5.07
2023-05-15T09:39:44.229Z,2.53
2023-05-15T09:42:14.355Z,7.18
2023-05-15T09:44:43.423Z,4.75
2023-05-15T09:47:13.861Z,1.77
2023-05-15T09:49:44.397Z,2.50
2023-05-15T09:52:12.151Z,3.85
2023-05-15T09:54:40.469Z,2.83
2023-05-15T09:57:10.240Z,2.50
2023-05-15T09:59:48.380Z,5.05
2023-05-15T10:02:31.795Z,4.10
2023-05-15T10:05:00.826Z,5.95
2023-05-15T10:07:36.281Z,4.40
2023-05-15T10:10:05.392Z,7.03
2023-05-15T10:12:36.711Z,1.85
2023-05-15T10:15:05.786Z,3.13
2023-05-15T10:17:36.970Z,3.35
2023-05-15T10:20:07.205Z,3.60
2023-05-15T10:22:42.126Z,4.15
2023-05-15T10:25:16.937Z,3.92
2023-05-15T10:27:46.714Z,8.38
2023-05-15T10:30:17.228Z,3.30
2023-05-15T10:32:45.960Z,9.13
2023-05-15T10:35:13.568Z,3.35
2023-05-15T10:37:41.316Z,4.35
2023-05-15T10:40:10.585Z,2.78
2023-05-15T10:42:38.731Z,2.85
2023-05-15T10:45:08.973Z,4.95
2023-05-15T10:47:41.084Z,2.72
2023-05-15T10:50:09.669Z,4.63
2023-05-15T10:52:38.667Z,2.47
2023-05-15T10:55:14.071Z,1.90
2023-05-15T10:57:42.064Z,5.15
2023-05-15T11:00:29.477Z,2.20
2023-05-15T11:02:58.870Z,3.40
2023-05-15T11:05:27.077Z,10.43
2023-05-15T11:08:16.104Z,7.15
2023-05-15T11:10:43.862Z,3.80
2023-05-15T11:13:12.239Z,2.38
2023-05-15T11:15:44.765Z,2.85
2023-05-15T11:18:13.345Z,5.68
2023-05-15T11:21:01.315Z,2.78
2023-05-15T11:23:28.943Z,3.42
2023-05-15T11:25:57.601Z,1.98
2023-05-15T11:28:30.005Z,3.72
2023-05-15T11:31:06.879Z,3.08
2023-05-15T11:33:34.737Z,2.22
2023-05-15T11:36:05.433Z,5.18
2023-05-15T11:38:39.101Z,3.53
2023-05-15T11:41:18.752Z,3.00
2023-05-15T11:43:46.837Z,4.32
2023-05-15T11:46:16.083Z,1.92
2023-05-15T11:48:47.937Z,6.45
2023-05-15T11:51:22.765Z,6.07
2023-05-15T11:53:52.023Z,4.00
2023-05-15T11:56:22.955Z,5.07
2023-05-15T11:58:58.420Z,3.42
2023-05-15T12:01:26.806Z,7.00
2023-05-15T12:03:55.224Z,1.70
2023-05-15T12:06:23.197Z,2.40
2023-05-15T12:08:52.954Z,3.90
2023-05-15T12:11:25.352Z,3.30
2023-05-15T12:13:54.990Z,3.08
2023-05-15T12:16:27.253Z,2.50
2023-05-15T12:18:57.411Z,1.50
2023-05-15T12:21:27.257Z,2.97
2023-05-15T12:26:29.367Z,5.88
2023-05-15T12:28:57.746Z,5.97
2023-05-15T12:31:25.709Z,4.68
2023-05-15T12:33:53.379Z,2.88
2023-05-15T12:36:22.029Z,5.28
2023-05-15T12:38:49.681Z,1.83
2023-05-15T12:41:20.492Z,4.43
2023-05-15T12:43:48.709Z,6.10
2023-05-15T12:46:16.252Z,2.88
2023-05-15T12:48:44.158Z,5.72
2023-05-15T12:51:11.725Z,3.85
2023-05-15T12:53:42.584Z,5.07
2023-05-15T12:56:10.347Z,2.58
2023-05-15T12:58:38.862Z,6.78
2023-05-15T13:01:06.644Z,6.00
2023-05-15T13:03:35.194Z,4.80
2023-05-15T13:06:03.864Z,7.40
2023-05-15T13:08:31.929Z,5.63
2023-05-15T13:11:01.126Z,3.63
2023-05-15T13:13:46.389Z,2.63
2023-05-15T13:16:25.246Z,4.88
2023-05-15T13:18:53.701Z,8.30
2023-05-15T13:21:21.616Z,3.00
2023-05-15T13:23:49.329Z,5.03
2023-05-15T13:26:17.207Z,6.80
2023-05-15T13:28:45.011Z,7.45
2023-05-15T13:31:12.802Z,8.25
2023-05-15T13:33:40.680Z,4.00
2023-05-15T13:36:08.684Z,8.95
2023-05-15T13:38:36.380Z,8.88
2023-05-15T13:41:05.145Z,3.90
2023-05-15T13:43:32.988Z,6.45
2023-05-15T13:46:00.705Z,3.60
2023-05-15T13:48:28.321Z,6.50
2023-05-15T13:50:56.208Z,4.72
2023-05-15T13:53:23.949Z,7.88
2023-05-15T13:55:51.670Z,4.95
2023-05-15T13:58:19.693Z,3.13
2023-05-15T14:00:48.714Z,3.88
2023-05-15T14:03:16.456Z,2.60
2023-05-15T14:05:44.417Z,14.20
2023-05-15T14:08:12.249Z,8.85
2023-05-15T14:10:39.767Z,13.32
2023-05-15T14:13:07.502Z,11.07
2023-05-15T14:15:35.117Z,5.47
2023-05-15T14:18:02.806Z,7.63
2023-05-15T14:20:30.578Z,3.55
2023-05-15T14:22:58.327Z,2.40
2023-05-15T14:25:25.965Z,3.58
2023-05-15T14:27:53.620Z,8.55
2023-05-15T14:30:22.151Z,3.95
2023-05-15T14:32:49.854Z,5.30
2023-05-15T14:35:17.519Z,7.45
2023-05-15T14:37:45.374Z,5.05
2023-05-15T14:40:13.465Z,6.22
2023-05-15T14:42:41.136Z,6.13
2023-05-15T14:45:09.300Z,9.30
2023-05-15T14:47:37.033Z,3.35
2023-05-15T14:50:05.064Z,6.68
2023-05-15T14:52:33.039Z,3.45
2023-05-15T14:55:09.247Z,4.22
2023-05-15T14:57:40.770Z,6.25
2023-05-15T15:00:09.707Z,12.13
2023-05-15T15:02:37.590Z,3.88
2023-05-15T15:05:05.786Z,6.05
2023-05-15T15:08:02.140Z,5.63
2023-05-15T15:10:30.893Z,10.77
2023-05-15T15:12:59.142Z,3.92
2023-05-15T15:15:27.207Z,4.80
2023-05-15T15:17:57.405Z,7.75
2023-05-15T15:20:27.169Z,20.55
2023-05-15T15:22:55.827Z,7.55
2023-05-15T15:25:23.567Z,3.10
2023-05-15T15:27:51.473Z,5.55
2023-05-15T15:30:19.367Z,4.65
2023-05-15T15:32:47.271Z,5.40
2023-05-15T15:35:15.101Z,11.70
2023-05-15T15:37:42.795Z,7.18
2023-05-15T15:40:11.146Z,5.25
2023-05-15T15:42:38.889Z,5.47
2023-05-15T15:45:07.022Z,7.00
2023-05-15T15:47:35.519Z,4.47
2023-05-15T15:50:03.391Z,7.15
2023-05-15T15:52:33.349Z,4.63
2023-05-15T15:55:01.097Z,4.65
2023-05-15T15:57:30.161Z,3.00
2023-05-15T15:59:58.302Z,1.83
2023-05-15T16:02:26.022Z,7.85
2023-05-15T16:04:53.664Z,4.22
2023-05-15T16:07:21.537Z,2.55
2023-05-15T16:09:56.879Z,3.70
2023-05-15T16:12:37.013Z,7.78
2023-05-15T16:15:20.977Z,4.80
2023-05-15T16:17:52.980Z,5.50
2023-05-15T16:20:21.340Z,5.38
2023-05-15T16:22:48.980Z,7.22
2023-05-15T16:25:16.536Z,4.55
2023-05-15T16:27:44.088Z,5.85
2023-05-15T16:30:12.412Z,13.20
2023-05-15T16:32:40.651Z,5.25
2023-05-15T16:35:08.945Z,5.10
2023-05-15T16:37:36.801Z,15.55
2023-05-15T16:40:04.945Z,8.05
2023-05-15T16:42:37.140Z,10.52
2023-05-15T16:45:05.747Z,4.05
2023-05-15T16:47:34.174Z,5.47
2023-05-15T16:50:01.917Z,8.30
2023-05-15T16:52:31.930Z,3.80
2023-05-15T16:54:59.642Z,5.75
2023-05-15T16:57:27.427Z,6.50
2023-05-15T16:59:56.552Z,9.05
2023-05-15T17:02:24.320Z,11.50
2023-05-15T17:04:53.374Z,12.13
2023-05-15T17:07:21.365Z,8.82
2023-05-15T17:09:48.975Z,14.18
2023-05-15T17:12:16.988Z,6.78
2023-05-15T17:14:44.671Z,7.65
2023-05-15T17:17:12.397Z,7.90
2023-05-15T17:19:40.078Z,5.90
2023-05-15T17:22:07.822Z,10.00
2023-05-15T17:24:49.417Z,6.43
2023-05-15T17:27:20.584Z,9.95
2023-05-15T17:29:49.002Z,9.02
2023-05-15T17:32:18.291Z,5.03
2023-05-15T17:34:46.995Z,9.45
2023-05-15T17:37:16.150Z,11.65
2023-05-15T17:39:43.855Z,16.60
2023-05-15T17:42:11.634Z,10.70
2023-05-15T17:44:39.370Z,9.18
2023-05-15T17:47:07.892Z,8.43
2023-05-15T17:49:36.006Z,15.30
2023-05-15T17:52:03.782Z,15.32
2023-05-15T17:54:31.425Z,16.75
2023-05-15T17:56:59.103Z,14.68
2023-05-15T17:59:26.724Z,13.68
2023-05-15T18:01:54.589Z,7.55
2023-05-15T18:04:22.293Z,24.10
2023-05-15T18:06:51.126Z,9.05
2023-05-15T18:09:23.131Z,13.57
2023-05-15T18:11:52.262Z,7.63
2023-05-15T18:14:20.251Z,12.95
2023-05-15T18:16:47.838Z,17.83
2023-05-15T18:19:15.626Z,12.15
2023-05-15T18:21:43.268Z,15.80
2023-05-15T18:24:12.367Z,16.65
2023-05-15T18:26:40.050Z,16.55
2023-05-15T18:29:07.867Z,6.30
2023-05-15T18:31:36.635Z,10.18
2023-05-15T18:34:05.592Z,20.33
2023-05-15T18:36:33.463Z,19.73
2023-05-15T18:39:02.674Z,18.17
2023-05-15T18:41:31.458Z,14.52
2023-05-15T18:43:59.122Z,11.27
2023-05-15T18:46:28.399Z,7.28
2023-05-15T18:48:56.373Z,10.75
2023-05-15T18:51:24.057Z,19.05
2023-05-15T18:53:52.059Z,15.05
2023-05-15T18:56:19.618Z,14.02
2023-05-15T18:58:47.511Z,18.80
2023-05-15T19:01:15.394Z,8.55
2023-05-15T19:03:43.114Z,13.45
2023-05-15T19:06:11.649Z,13.25
2023-05-15T19:08:39.254Z,6.55
2023-05-15T19:11:08.844Z,17.95
2023-05-15T19:13:36.575Z,11.07
2023-05-15T19:16:06.180Z,7.18
2023-05-15T19:18:34.032Z,9.55
2023-05-15T19:21:01.697Z,18.15
2023-05-15T19:23:29.419Z,13.88
2023-05-15T19:25:57.099Z,9.68
2023-05-15T19:28:24.713Z,12.77
2023-05-15T19:30:52.276Z,13.88
2023-05-15T19:33:19.943Z,17.85
2023-05-15T19:35:47.751Z,14.90
2023-05-15T19:38:15.591Z,11.15
2023-05-15T19:40:45.306Z,13.63
2023-05-15T19:43:14.315Z,22.23
2023-05-15T19:45:42.429Z,18.70
2023-05-15T19:48:10.226Z,13.52
2023-05-15T19:50:41.134Z,21.67
2023-05-15T19:53:08.957Z,17.73
2023-05-15T19:55:36.565Z,19.23
2023-05-15T19:58:04.412Z,19.83
2023-05-15T20:00:32.560Z,16.45
2023-05-15T20:03:01.018Z,13.35
2023-05-15T20:05:28.983Z,10.32
2023-05-15T20:07:56.594Z,19.65
2023-05-15T20:10:24.864Z,27.63
2023-05-15T20:12:52.685Z,13.88
2023-05-15T20:15:20.538Z,14.60
2023-05-15T20:17:48.298Z,11.55
2023-05-15T20:20:16.747Z,18.17
2023-05-15T20:22:44.875Z,17.42
2023-05-15T20:25:12.879Z,23.67
2023-05-15T20:27:40.540Z,17.45
2023-05-15T20:30:08.770Z,13.80
2023-05-15T20:32:37.315Z,7.82
2023-05-15T20:35:06.168Z,23.13
2023-05-15T20:37:34.642Z,13.00
2023-05-15T20:40:02.334Z,14.05
2023-05-15T20:42:30.257Z,16.63
2023-05-15T20:44:57.900Z,16.83
2023-05-15T20:47:25.851Z,21.55
2023-05-15T20:49:53.824Z,25.42
2023-05-15T20:52:21.739Z,13.45
2023-05-15T20:54:49.432Z,16.25
2023-05-15T20:57:17.004Z,13.13
2023-05-15T20:59:44.827Z,14.70
2023-05-15T21:02:12.400Z,17.20
2023-05-15T21:04:39.959Z,14.30
2023-05-15T21:07:08.297Z,13.88
2023-05-15T21:09:36.018Z,21.00
2023-05-15T21:12:04.254Z,21.45
2023-05-15T21:14:32.109Z,18.13
2023-05-15T21:16:59.899Z,15.48
2023-05-15T21:19:27.802Z,20.42
2023-05-15T21:21:55.799Z,11.43
2023-05-15T21:24:23.510Z,17.48
2023-05-15T21:26:51.351Z,18.77
2023-05-15T21:29:19.080Z,15.55
2023-05-15T21:31:47.010Z,12.23
2023-05-15T21:34:14.700Z,13.95
2023-05-15T21:36:43.702Z,10.52
2023-05-15T21:39:11.676Z,16.52
2023-05-15T21:41:39.237Z,14.93
2023-05-15T21:44:07.101Z,12.00
2023-05-15T21:46:35.329Z,23.40
2023-05-15T21:49:03.550Z,18.95
2023-05-15T21:51:31.201Z,15.88
2023-05-15T21:53:58.724Z,12.75
2023-05-15T21:56:26.673Z,17.98
2023-05-15T21:58:54.335Z,17.77
2023-05-15T22:01:21.933Z,19.48
2023-05-15T22:03:49.752Z,16.70
2023-05-15T22:06:17.485Z,17.42
2023-05-15T22:08:45.077Z,15.23
2023-05-15T22:11:12.706Z,24.15
2023-05-15T22:13:40.307Z,22.70
2023-05-15T22:16:08.054Z,19.83
2023-05-15T22:18:35.802Z,19.55
2023-05-15T22:21:03.549Z,12.35
2023-05-15T22:23:32.270Z,19.45
2023-05-15T22:25:59.933Z,12.63
2023-05-15T22:28:27.602Z,21.13
2023-05-15T22:30:55.099Z,15.93
2023-05-15T22:33:25.806Z,15.85
2023-05-15T22:35:53.790Z,16.13
2023-05-15T22:38:21.412Z,15.18
2023-05-15T22:40:52.793Z,19.55
2023-05-15T22:43:22.168Z,15.68
2023-05-15T22:45:50.157Z,17.20
2023-05-15T22:48:17.951Z,16.00
2023-05-15T22:50:45.647Z,28.50
2023-05-15T22:53:13.523Z,15.45
2023-05-15T22:55:41.629Z,22.10
2023-05-15T22:58:09.490Z,16.10
2023-05-15T23:00:37.311Z,17.63
2023-05-15T23:03:05.184Z,16.15
2023-05-15T23:05:32.840Z,11.68
2023-05-15T23:08:00.534Z,10.38
2023-05-15T23:10:28.393Z,18.02
2023-05-15T23:12:58.763Z,19.83
2023-05-15T23:15:26.360Z,16.20
2023-05-15T23:17:54.127Z,16.60
2023-05-15T23:20:21.757Z,12.13
2023-05-15T23:22:49.528Z,11.82
2023-05-15T23:25:17.160Z,13.45
2023-05-15T23:27:44.829Z,17.98
2023-05-15T23:30:12.731Z,8.27
2023-05-15T23:32:40.346Z,13.60
2023-05-15T23:35:08.406Z,11.50
2023-05-15T23:37:36.034Z,8.55
2023-05-15T23:40:05.440Z,10.15
2023-05-15T23:42:33.102Z,13.23
2023-05-15T23:45:00.808Z,19.20
2023-05-15T23:47:28.506Z,6.78
2023-05-15T23:49:56.175Z,9.23
2023-05-15T23:52:23.819Z,17.48
2023-05-15T23:54:51.521Z,7.13
2023-05-15T23:57:19.051Z,8.82
2023-05-15T23:59:46.559Z,8.77
